createdAt,value
2019-01-23T00:01:46.573Z,20.88
2019-01-23T00:04:26.751Z,22.67
2019-01-23T00:07:06.841Z,22.62
2019-01-23T00:09:47.092Z,20.17
2019-01-23T00:12:27.198Z,21.68
2019-01-23T00:15:07.063Z,22.73
2019-01-23T00:17:47.323Z,20.55
2019-01-23T00:20:27.293Z,22.37
2019-01-23T00:23:07.292Z,25.10
2019-01-23T00:25:47.380Z,25.02
2019-01-23T00:28:27.290Z,22.37
2019-01-23T00:31:07.121Z,20.35
2019-01-23T00:33:47.091Z,21.10
2019-01-23T00:36:27.064Z,21.15
2019-01-23T00:39:07.123Z,21.02
2019-01-23T00:41:46.929Z,20.92
2019-01-23T00:44:27.147Z,21.85
2019-01-23T00:47:07.231Z,20.75
2019-01-23T00:49:47.558Z,20.85
2019-01-23T00:52:27.517Z,20.52
2019-01-23T00:55:07.529Z,21.27
2019-01-23T00:57:47.525Z,19.80
2019-01-23T01:00:27.516Z,20.20
2019-01-23T01:03:07.330Z,20.57
2019-01-23T01:05:47.886Z,20.30
2019-01-23T01:08:28.507Z,20.68
2019-01-23T01:11:08.174Z,21.48
2019-01-23T01:13:48.367Z,22.60
2019-01-23T01:16:28.466Z,22.10
2019-01-23T01:19:08.549Z,24.10
2019-01-23T01:21:48.674Z,22.02
2019-01-23T01:24:28.747Z,23.00
2019-01-23T01:27:08.747Z,22.50
2019-01-23T01:29:48.474Z,22.60
2019-01-23T01:32:28.584Z,21.20
2019-01-23T01:35:08.903Z,22.48
2019-01-23T01:37:48.915Z,22.82
2019-01-23T01:40:28.985Z,20.12
2019-01-23T01:43:09.084Z,21.30
2019-01-23T01:45:49.056Z,20.70
2019-01-23T01:48:28.954Z,20.35
2019-01-23T01:51:08.868Z,21.95
2019-01-23T01:53:49.070Z,20.95
2019-01-23T01:56:29.076Z,21.27
2019-01-23T01:59:09.274Z,21.70
2019-01-23T02:01:49.176Z,21.45
2019-01-23T02:04:29.132Z,20.60
2019-01-23T02:07:09.058Z,21.50
2019-01-23T02:09:49.116Z,21.50
2019-01-23T02:12:29.158Z,20.55
2019-01-23T02:15:09.344Z,22.77
2019-01-23T02:17:49.247Z,22.27
2019-01-23T02:20:29.270Z,21.27
2019-01-23T02:23:09.384Z,21.68
2019-01-23T02:25:49.374Z,21.68
2019-01-23T02:28:29.704Z,21.60
2019-01-23T02:31:09.764Z,22.52
2019-01-23T02:33:49.591Z,21.00
2019-01-23T02:36:29.774Z,20.72
2019-01-23T02:39:09.510Z,19.77
2019-01-23T02:41:50.969Z,21.20
2019-01-23T02:44:31.609Z,21.05
2019-01-23T02:47:11.523Z,22.15
2019-01-23T02:49:51.708Z,21.15
2019-01-23T02:52:31.744Z,21.25
2019-01-23T02:55:11.821Z,21.93
2019-01-23T02:57:51.759Z,24.18
2019-01-23T03:00:31.907Z,20.75
2019-01-23T03:03:12.074Z,21.48
2019-01-23T03:05:52.277Z,22.90
2019-01-23T03:08:32.152Z,22.55
2019-01-23T03:11:12.144Z,23.80
2019-01-23T03:13:52.173Z,22.15
2019-01-23T03:16:32.062Z,22.05
2019-01-23T03:19:12.265Z,21.55
2019-01-23T03:21:52.295Z,22.52
2019-01-23T03:24:32.311Z,23.32
2019-01-23T03:27:12.596Z,23.10
2019-01-23T03:29:52.595Z,22.93
2019-01-23T03:32:32.531Z,23.47
2019-01-23T03:35:12.715Z,22.95
2019-01-23T03:37:52.869Z,23.45
2019-01-23T03:40:32.985Z,23.47
2019-01-23T03:43:13.009Z,24.18
2019-01-23T03:45:52.897Z,25.85
2019-01-23T03:48:33.357Z,25.48
2019-01-23T03:51:13.324Z,24.63
2019-01-23T03:53:53.477Z,23.90
2019-01-23T03:56:33.399Z,24.95
2019-01-23T03:59:13.424Z,24.87
2019-01-23T04:01:53.298Z,24.72
2019-01-23T04:04:33.370Z,25.75
2019-01-23T04:07:13.621Z,23.25
2019-01-23T04:09:53.792Z,23.35
2019-01-23T04:12:33.948Z,24.90
2019-01-23T04:15:13.973Z,23.22
2019-01-23T04:17:54.055Z,23.38
2019-01-23T04:20:34.088Z,24.07
2019-01-23T04:23:13.848Z,24.72
2019-01-23T04:25:53.829Z,24.32
2019-01-23T04:28:33.883Z,22.93
2019-01-23T04:31:14.023Z,23.57
2019-01-23T04:33:54.260Z,23.20
2019-01-23T04:36:34.242Z,25.10
2019-01-23T04:39:14.550Z,23.00
2019-01-23T04:41:54.438Z,23.00
2019-01-23T04:44:34.596Z,23.15
2019-01-23T04:47:14.705Z,26.27
2019-01-23T04:49:54.843Z,25.00
2019-01-23T04:53:00.153Z,24.07
2019-01-23T04:55:40.384Z,24.05
2019-01-23T04:58:20.945Z,24.65
2019-01-23T05:01:01.044Z,24.92
2019-01-23T05:03:41.163Z,25.68
2019-01-23T05:06:21.185Z,25.55
2019-01-23T05:09:01.396Z,24.00
2019-01-23T05:11:41.332Z,24.18
2019-01-23T05:14:21.450Z,24.05
2019-01-23T05:17:01.785Z,24.52
2019-01-23T05:19:41.864Z,25.77
2019-01-23T05:22:21.793Z,26.27
2019-01-23T05:25:02.123Z,27.98
2019-01-23T05:27:42.117Z,25.82
2019-01-23T05:30:22.489Z,26.55
2019-01-23T05:33:02.541Z,25.23
2019-01-23T05:35:42.602Z,26.62
2019-01-23T05:38:22.641Z,24.15
2019-01-23T05:41:02.762Z,26.02
2019-01-23T05:43:42.896Z,25.02
2019-01-23T05:46:23.134Z,24.55
2019-01-23T05:49:03.058Z,27.52
2019-01-23T05:51:43.105Z,24.65
2019-01-23T05:54:23.078Z,23.77
2019-01-23T05:57:03.007Z,23.85
2019-01-23T05:59:42.979Z,22.62
2019-01-23T06:02:22.821Z,23.10
2019-01-23T06:05:03.196Z,23.90
2019-01-23T06:07:43.231Z,19.77
2019-01-23T06:10:23.367Z,22.45
2019-01-23T06:13:03.392Z,22.60
2019-01-23T06:15:43.439Z,22.30
2019-01-23T06:18:23.497Z,23.77
2019-01-23T06:21:03.514Z,22.62
2019-01-23T06:23:43.598Z,25.75
2019-01-23T06:26:23.343Z,22.93
2019-01-23T06:29:03.434Z,25.25
2019-01-23T06:31:43.588Z,24.92
2019-01-23T06:34:23.601Z,25.57
2019-01-23T06:37:03.578Z,25.20
2019-01-23T06:39:43.419Z,24.57
2019-01-23T06:42:23.504Z,21.30
2019-01-23T06:45:03.585Z,24.52
2019-01-23T06:47:43.866Z,22.17
2019-01-23T06:50:23.828Z,23.12
2019-01-23T06:53:03.800Z,24.43
2019-01-23T06:55:43.781Z,22.77
2019-01-23T06:58:23.939Z,27.37
2019-01-23T07:01:04.015Z,23.02
2019-01-23T07:03:44.047Z,22.75
2019-01-23T07:06:23.927Z,22.10
2019-01-23T07:09:04.154Z,22.05
2019-01-23T07:11:44.221Z,24.43
2019-01-23T07:14:24.195Z,24.63
2019-01-23T07:17:04.160Z,25.23
2019-01-23T07:19:44.219Z,24.85
2019-01-23T07:22:24.115Z,23.87
2019-01-23T07:25:03.987Z,23.20
2019-01-23T07:27:44.117Z,21.97
2019-01-23T07:30:24.602Z,23.50
2019-01-23T07:33:04.339Z,23.45
2019-01-23T07:35:44.476Z,25.57
2019-01-23T07:38:24.745Z,22.40
2019-01-23T07:41:04.697Z,23.35
2019-01-23T07:43:44.614Z,22.77
2019-01-23T07:46:24.791Z,25.02
2019-01-23T07:49:04.691Z,23.98
2019-01-23T07:51:44.811Z,24.70
2019-01-23T07:54:24.895Z,22.25
2019-01-23T07:57:05.131Z,22.50
2019-01-23T07:59:45.019Z,23.05
2019-01-23T08:02:25.445Z,21.95
2019-01-23T08:05:05.349Z,25.02
2019-01-23T08:07:45.508Z,23.12
2019-01-23T08:10:25.830Z,23.85
2019-01-23T08:13:05.762Z,25.90
2019-01-23T08:15:46.035Z,23.67
2019-01-23T08:18:25.898Z,25.32
2019-01-23T08:21:05.827Z,23.45
2019-01-23T08:23:45.894Z,22.75
2019-01-23T08:26:25.933Z,24.90
2019-01-23T08:29:05.951Z,25.77
2019-01-23T08:31:45.846Z,25.88
2019-01-23T08:34:25.795Z,23.90
2019-01-23T08:37:05.616Z,25.90
2019-01-23T08:39:45.705Z,24.75
2019-01-23T08:42:25.747Z,25.05
2019-01-23T08:45:05.659Z,25.62
2019-01-23T08:47:45.998Z,25.80
2019-01-23T08:50:25.978Z,25.10
2019-01-23T08:53:06.248Z,26.60
2019-01-23T08:55:46.090Z,27.65
2019-01-23T08:58:25.944Z,24.55
2019-01-23T09:01:06.155Z,24.55
2019-01-23T09:03:46.047Z,25.55
2019-01-23T09:06:26.167Z,25.55
2019-01-23T09:09:06.305Z,26.55
2019-01-23T09:11:46.210Z,25.55
2019-01-23T09:14:26.407Z,26.73
2019-01-23T09:17:06.394Z,24.65
2019-01-23T09:19:46.472Z,26.93
2019-01-23T09:22:26.498Z,26.23
2019-01-23T09:25:06.497Z,25.75
2019-01-23T09:27:46.619Z,27.27
2019-01-23T09:30:26.679Z,25.85
2019-01-23T09:33:06.957Z,26.12
2019-01-23T09:35:46.974Z,25.05
2019-01-23T09:38:27.101Z,24.82
2019-01-23T09:41:07.023Z,28.57
2019-01-23T09:43:47.092Z,24.90
2019-01-23T09:46:27.007Z,25.90
2019-01-23T09:49:07.129Z,26.57
2019-01-23T09:51:47.089Z,26.48
2019-01-23T09:54:27.137Z,27.35
2019-01-23T09:57:06.933Z,25.85
2019-01-23T09:59:46.888Z,27.30
2019-01-23T10:02:26.865Z,26.90
2019-01-23T10:05:07.014Z,26.07
2019-01-23T10:07:47.012Z,25.50
2019-01-23T10:10:26.940Z,24.18
2019-01-23T10:13:06.922Z,29.35
2019-01-23T10:15:46.859Z,28.92
2019-01-23T10:18:26.763Z,23.92
2019-01-23T10:21:06.736Z,24.65
2019-01-23T10:23:46.783Z,25.80
2019-01-23T10:26:26.908Z,24.18
2019-01-23T10:29:06.779Z,23.40
2019-01-23T10:31:46.922Z,25.17
2019-01-23T10:34:26.893Z,22.77
2019-01-23T10:37:07.070Z,25.52
2019-01-23T10:39:47.047Z,21.17
2019-01-23T10:42:27.335Z,23.15
2019-01-23T10:45:07.292Z,25.02
2019-01-23T10:47:47.366Z,24.35
2019-01-23T10:50:27.363Z,24.32
2019-01-23T10:53:07.807Z,22.45
2019-01-23T10:55:47.624Z,20.32
2019-01-23T10:58:27.771Z,21.15
2019-01-23T11:01:13.336Z,24.82
2019-01-23T11:03:50.045Z,21.40
2019-01-23T11:06:30.122Z,25.55
2019-01-23T11:09:10.226Z,26.87
2019-01-23T11:11:50.144Z,25.50
2019-01-23T11:14:30.378Z,24.92
2019-01-23T11:17:10.444Z,23.45
2019-01-23T11:19:50.500Z,23.07
2019-01-23T11:22:30.579Z,22.37
2019-01-23T11:25:10.800Z,18.67
2019-01-23T11:27:50.776Z,23.70
2019-01-23T11:30:30.935Z,22.05
2019-01-23T11:33:10.980Z,20.90
2019-01-23T11:35:50.949Z,21.62
2019-01-23T11:38:31.064Z,20.92
2019-01-23T11:41:11.277Z,20.92
2019-01-23T11:43:51.206Z,20.77
2019-01-23T11:46:31.181Z,22.70
2019-01-23T11:49:11.149Z,21.10
2019-01-23T11:51:51.441Z,21.20
2019-01-23T11:54:31.244Z,21.82
2019-01-23T11:57:11.176Z,21.30
2019-01-23T11:59:51.079Z,20.52
2019-01-23T12:02:31.220Z,20.95
2019-01-23T12:05:11.034Z,21.73
2019-01-23T12:07:51.270Z,21.75
2019-01-23T12:10:31.333Z,22.22
2019-01-23T12:13:11.358Z,22.65
2019-01-23T12:15:51.411Z,16.87
2019-01-23T12:18:31.388Z,20.12
2019-01-23T12:21:11.878Z,21.27
2019-01-23T12:23:58.090Z,20.72
2019-01-23T12:26:33.523Z,20.68
2019-01-23T12:29:13.256Z,19.80
2019-01-23T12:31:53.262Z,20.90
2019-01-23T12:34:33.129Z,20.62
2019-01-23T12:37:13.160Z,22.07
2019-01-23T12:39:53.343Z,20.08
2019-01-23T12:42:33.549Z,21.48
2019-01-23T12:45:13.564Z,21.90
2019-01-23T12:47:53.781Z,22.75
2019-01-23T12:50:33.853Z,21.35
2019-01-23T12:53:14.204Z,21.85
2019-01-23T12:55:54.091Z,22.65
2019-01-23T12:58:34.072Z,23.02
2019-01-23T13:01:13.965Z,23.98
2019-01-23T13:03:53.896Z,24.27
2019-01-23T13:06:33.853Z,23.60
2019-01-23T13:09:13.920Z,22.80
2019-01-23T13:11:53.944Z,23.45
2019-01-23T13:14:33.979Z,22.82
2019-01-23T13:17:13.916Z,25.17
2019-01-23T13:19:53.845Z,25.12
2019-01-23T13:22:33.964Z,21.87
2019-01-23T13:25:14.020Z,23.32
2019-01-23T13:27:54.156Z,21.85
2019-01-23T13:30:34.319Z,22.22
2019-01-23T13:33:14.342Z,24.07
2019-01-23T13:35:54.261Z,23.30
2019-01-23T13:38:34.305Z,23.27
2019-01-23T13:41:14.264Z,25.65
2019-01-23T13:43:54.089Z,25.80
2019-01-23T13:46:34.215Z,23.18
2019-01-23T13:49:14.347Z,23.80
2019-01-23T13:51:54.503Z,25.92
2019-01-23T13:54:34.599Z,25.17
2019-01-23T13:57:14.556Z,25.43
2019-01-23T13:59:54.587Z,25.62
2019-01-23T14:02:34.350Z,23.45
2019-01-23T14:05:14.305Z,24.12
2019-01-23T14:07:54.260Z,23.40
2019-01-23T14:10:34.215Z,25.25
2019-01-23T14:13:14.209Z,20.88
2019-01-23T14:15:53.956Z,23.05
2019-01-23T14:18:34.080Z,26.07
2019-01-23T14:21:13.897Z,24.85
2019-01-23T14:23:54.135Z,25.05
2019-01-23T14:26:34.148Z,24.23
2019-01-23T14:29:14.265Z,22.85
2019-01-23T14:31:54.400Z,25.30
2019-01-23T14:34:34.500Z,24.07
2019-01-23T14:37:14.428Z,23.00
2019-01-23T14:39:54.590Z,25.17
2019-01-23T14:42:34.660Z,24.85
2019-01-23T14:45:14.857Z,26.27
2019-01-23T14:47:54.989Z,24.98
2019-01-23T14:50:35.007Z,25.45
2019-01-23T14:53:15.388Z,27.67
2019-01-23T14:55:55.089Z,26.10
2019-01-23T14:58:35.313Z,28.55
2019-01-23T15:01:15.296Z,27.65
2019-01-23T15:03:55.321Z,26.87
2019-01-23T15:06:35.377Z,26.48
2019-01-23T15:09:15.400Z,26.07
2019-01-23T15:11:55.136Z,26.37
2019-01-23T15:14:35.319Z,25.92
2019-01-23T15:17:15.494Z,28.62
2019-01-23T15:19:55.552Z,26.20
2019-01-23T15:22:35.624Z,29.80
2019-01-23T15:25:15.585Z,26.95
2019-01-23T15:27:55.728Z,25.72
2019-01-23T15:30:35.953Z,26.97
2019-01-23T15:33:15.979Z,26.12
2019-01-23T15:35:56.020Z,25.92
2019-01-23T15:38:36.198Z,25.50
2019-01-23T15:41:16.483Z,26.35
2019-01-23T15:43:56.451Z,25.50
2019-01-23T15:46:36.332Z,25.08
2019-01-23T15:49:16.269Z,28.17
2019-01-23T15:51:56.452Z,26.97
2019-01-23T15:54:36.516Z,25.88
2019-01-23T15:57:16.766Z,29.07
2019-01-23T15:59:56.724Z,26.52
2019-01-23T16:02:36.693Z,26.02
2019-01-23T16:05:16.663Z,26.80
2019-01-23T16:07:56.846Z,25.97
2019-01-23T16:10:36.817Z,28.23
2019-01-23T16:13:16.736Z,27.62
2019-01-23T16:15:56.628Z,28.47
2019-01-23T16:18:36.759Z,29.30
2019-01-23T16:21:16.774Z,28.38
2019-01-23T16:23:56.946Z,26.60
2019-01-23T16:26:36.814Z,28.65
2019-01-23T16:29:16.752Z,27.62
2019-01-23T16:31:56.826Z,27.20
2019-01-23T16:34:36.991Z,27.77
2019-01-23T16:37:16.883Z,30.60
2019-01-23T16:39:56.930Z,28.57
2019-01-23T16:42:37.685Z,26.77
2019-01-23T16:45:17.892Z,29.70
2019-01-23T16:47:57.839Z,27.85
2019-01-23T16:50:37.729Z,27.75
2019-01-23T16:53:17.844Z,29.30
2019-01-23T16:55:57.891Z,27.75
2019-01-23T16:58:37.955Z,29.40
2019-01-23T17:01:17.706Z,30.10
2019-01-23T17:03:58.041Z,32.63
2019-01-23T17:06:38.095Z,32.48
2019-01-23T17:09:18.007Z,30.95
2019-01-23T17:11:58.006Z,31.77
2019-01-23T17:14:38.025Z,33.30
2019-01-23T17:17:18.046Z,34.03
2019-01-23T17:19:59.271Z,36.17
2019-01-23T17:22:39.949Z,32.63
2019-01-23T17:25:19.949Z,34.08
2019-01-23T17:27:59.984Z,34.83
2019-01-23T17:30:40.081Z,28.52
2019-01-23T17:33:19.934Z,37.38
2019-01-23T17:35:59.845Z,37.45
2019-01-23T17:38:39.746Z,36.85
2019-01-23T17:41:19.747Z,34.83
2019-01-23T17:44:00.404Z,37.48
2019-01-23T17:46:41.168Z,37.23
2019-01-23T17:49:21.070Z,36.77
2019-01-23T17:52:01.081Z,38.08
2019-01-23T17:54:41.114Z,36.93
2019-01-23T17:57:21.085Z,37.40
2019-01-23T18:00:01.310Z,38.23
2019-01-23T18:02:41.170Z,39.67
2019-01-23T18:05:21.061Z,36.73
2019-01-23T18:08:01.083Z,40.30
2019-01-23T18:10:41.312Z,38.05
2019-01-23T18:13:21.131Z,38.88
2019-01-23T18:16:01.225Z,38.98
2019-01-23T18:18:41.319Z,38.00
2019-01-23T18:21:21.647Z,34.27
2019-01-23T18:24:01.625Z,39.38
2019-01-23T18:26:41.465Z,41.15
2019-01-23T18:29:21.405Z,40.45
2019-01-23T18:32:01.531Z,41.37
2019-01-23T18:34:41.448Z,42.25
2019-01-23T18:37:21.340Z,41.37
2019-01-23T18:40:01.665Z,37.35
2019-01-23T18:42:41.730Z,41.77
2019-01-23T18:45:21.745Z,37.55
2019-01-23T18:48:01.647Z,41.30
2019-01-23T18:50:41.803Z,40.80
2019-01-23T18:53:21.970Z,40.48
2019-01-23T18:56:01.864Z,38.73
2019-01-23T18:58:41.760Z,37.73
2019-01-23T19:01:21.824Z,39.95
2019-01-23T19:04:02.085Z,37.30
2019-01-23T19:06:42.272Z,37.95
2019-01-23T19:09:22.387Z,40.45
2019-01-23T19:12:02.362Z,37.40
2019-01-23T19:14:42.416Z,38.38
2019-01-23T19:17:22.517Z,37.65
2019-01-23T19:20:03.036Z,37.15
2019-01-23T19:22:43.379Z,36.48
2019-01-23T19:25:23.403Z,37.53
2019-01-23T19:28:03.477Z,32.10
2019-01-23T19:30:43.558Z,35.15
2019-01-23T19:33:23.524Z,34.10
2019-01-23T19:36:03.692Z,33.13
2019-01-23T19:38:44.940Z,35.28
2019-01-23T19:41:26.251Z,35.68
2019-01-23T19:44:05.941Z,34.65
2019-01-23T19:46:46.229Z,38.13
2019-01-23T19:49:26.096Z,36.83
2019-01-23T19:52:06.229Z,33.30
2019-01-23T19:54:46.406Z,33.95
2019-01-23T19:57:26.443Z,34.78
2019-01-23T20:00:06.404Z,34.83
2019-01-23T20:02:46.357Z,35.80
2019-01-23T20:05:26.320Z,34.67
2019-01-23T20:08:06.126Z,37.67
2019-01-23T20:10:46.149Z,37.13
2019-01-23T20:13:26.125Z,35.95
2019-01-23T20:16:06.333Z,34.90
2019-01-23T20:18:46.207Z,32.88
2019-01-23T20:21:26.213Z,31.93
2019-01-23T20:24:06.249Z,37.75
2019-01-23T20:26:47.708Z,39.55
2019-01-23T20:29:27.709Z,37.88
2019-01-23T20:32:07.771Z,35.10
2019-01-23T20:34:47.784Z,34.78
2019-01-23T20:37:27.767Z,36.73
2019-01-23T20:40:07.783Z,34.10
2019-01-23T20:42:47.891Z,34.70
2019-01-23T20:45:27.916Z,31.40
2019-01-23T20:48:07.844Z,33.58
2019-01-23T20:50:48.036Z,35.33
2019-01-23T20:53:28.071Z,27.17
2019-01-23T20:56:07.950Z,33.67
2019-01-23T20:58:47.999Z,36.95
2019-01-23T21:01:27.969Z,37.98
2019-01-23T21:04:08.149Z,32.67
2019-01-23T21:06:48.251Z,29.25
2019-01-23T21:09:28.164Z,33.42
2019-01-23T21:12:08.136Z,35.60
2019-01-23T21:14:48.080Z,33.38
2019-01-23T21:17:27.989Z,34.10
2019-01-23T21:20:08.065Z,35.30
2019-01-23T21:22:47.972Z,37.05
2019-01-23T21:25:27.982Z,36.58
2019-01-23T21:28:07.831Z,31.68
2019-01-23T21:30:47.992Z,33.18
2019-01-23T21:33:27.843Z,33.38
2019-01-23T21:36:08.013Z,33.42
2019-01-23T21:38:48.257Z,32.30
2019-01-23T21:41:28.251Z,25.82
2019-01-23T21:44:08.240Z,30.97
2019-01-23T21:46:48.382Z,31.45
2019-01-23T21:49:28.292Z,32.88
2019-01-23T21:52:08.197Z,32.78
2019-01-23T21:54:48.325Z,31.45
2019-01-23T21:57:28.305Z,30.37
2019-01-23T22:00:10.281Z,29.35
2019-01-23T22:02:50.525Z,30.60
2019-01-23T22:05:30.553Z,33.13
2019-01-23T22:08:10.675Z,33.42
2019-01-23T22:10:50.709Z,32.10
2019-01-23T22:13:30.743Z,32.75
2019-01-23T22:16:10.751Z,31.62
2019-01-23T22:18:50.769Z,31.97
2019-01-23T22:21:30.948Z,31.33
2019-01-23T22:24:10.796Z,32.42
2019-01-23T22:26:50.867Z,29.60
2019-01-23T22:29:30.875Z,34.10
2019-01-23T22:32:10.707Z,31.80
2019-01-23T22:34:50.649Z,30.75
2019-01-23T22:37:30.825Z,30.65
2019-01-23T22:40:10.943Z,31.30
2019-01-23T22:42:51.300Z,32.08
2019-01-23T22:45:31.168Z,32.08
2019-01-23T22:48:11.308Z,33.80
2019-01-23T22:50:51.186Z,34.15
2019-01-23T22:53:31.291Z,31.05
2019-01-23T22:56:11.443Z,32.53
2019-01-23T22:58:51.560Z,32.63
2019-01-23T23:01:31.529Z,31.73
2019-01-23T23:04:11.157Z,32.42
2019-01-23T23:06:51.340Z,32.08
2019-01-23T23:09:31.459Z,32.63
2019-01-23T23:12:11.556Z,31.97
2019-01-23T23:14:51.385Z,30.50
2019-01-23T23:17:31.718Z,33.08
2019-01-23T23:20:11.593Z,31.70
2019-01-23T23:22:51.719Z,34.18
2019-01-23T23:25:31.712Z,32.17
2019-01-23T23:28:12.053Z,33.28
2019-01-23T23:30:52.067Z,36.08
2019-01-23T23:33:31.910Z,33.20
2019-01-23T23:36:11.686Z,33.38
2019-01-23T23:38:51.765Z,31.82
2019-01-23T23:41:31.764Z,32.73
2019-01-23T23:44:11.745Z,33.63
2019-01-23T23:46:51.885Z,30.20
2019-01-23T23:49:31.699Z,34.63
2019-01-23T23:52:11.972Z,33.13
2019-01-23T23:54:52.116Z,31.68
2019-01-23T23:57:32.288Z,33.00
